sensor_id;sensor_type;location;lat;lon;timestamp;pressure;altitude;pressure_sealevel;temperature;humidity
49915;BME280;35806;47.958;13.158;2023-06-10T00:01:52;94324.00;;;18.52;48.90
49915;BME280;35806;47.958;13.158;2023-06-10T00:04:21;94321.98;;;18.34;48.90
49915;BME280;35806;47.958;13.158;2023-06-10T00:06:49;94321.13;;;18.83;48.98
49915;BME280;35806;47.958;13.158;2023-06-10T00:09:17;94321.24;;;18.61;48.96
49915;BME280;35806;47.958;13.158;2023-06-10T00:11:46;94320.12;;;19.03;48.60
49915;BME280;35806;47.958;13.158;2023-06-10T00:14:14;94320.32;;;18.36;49.35
49915;BME280;35806;47.958;13.158;2023-06-10T00:16:42;94318.09;;;18.30;49.66
49915;BME280;35806;47.958;13.158;2023-06-10T00:19:10;94321.86;;;18.54;49.35
49915;BME280;35806;47.958;13.158;2023-06-10T00:21:37;94322.72;;;18.01;50.10
49915;BME280;35806;47.958;13.158;2023-06-10T00:24:06;94322.73;;;18.62;49.57
49915;BME280;35806;47.958;13.158;2023-06-10T00:26:34;94319.77;;;18.34;50.09
49915;BME280;35806;47.958;13.158;2023-06-10T00:29:01;94323.01;;;18.14;50.34
49915;BME280;35806;47.958;13.158;2023-06-10T00:31:38;94324.34;;;18.46;50.37
49915;BME280;35806;47.958;13.158;2023-06-10T00:34:06;94326.24;;;17.99;50.69
49915;BME280;35806;47.958;13.158;2023-06-10T00:36:34;94321.80;;;17.37;51.74
49915;BME280;35806;47.958;13.158;2023-06-10T00:39:01;94320.04;;;18.16;51.54
49915;BME280;35806;47.958;13.158;2023-06-10T00:41:30;94319.02;;;18.32;50.42
49915;BME280;35806;47.958;13.158;2023-06-10T00:43:58;94316.76;;;17.56;51.38
49915;BME280;35806;47.958;13.158;2023-06-10T00:46:26;94316.01;;;17.27;52.10
49915;BME280;35806;47.958;13.158;2023-06-10T00:48:53;94314.40;;;17.87;51.96
49915;BME280;35806;47.958;13.158;2023-06-10T00:51:22;94312.73;;;17.53;52.06
49915;BME280;35806;47.958;13.158;2023-06-10T00:53:49;94310.72;;;17.51;51.25
49915;BME280;35806;47.958;13.158;2023-06-10T00:56:21;94312.29;;;17.65;51.61
49915;BME280;35806;47.958;13.158;2023-06-10T00:58:49;94309.70;;;18.06;50.99
49915;BME280;35806;47.958;13.158;2023-06-10T01:16:39;94303.87;;;18.08;51.50
49915;BME280;35806;47.958;13.158;2023-06-10T01:19:54;94302.46;;;18.72;50.74
49915;BME280;35806;47.958;13.158;2023-06-10T01:22:23;94304.44;;;18.60;51.10
49915;BME280;35806;47.958;13.158;2023-06-10T01:24:50;94306.47;;;18.66;50.60
49915;BME280;35806;47.958;13.158;2023-06-10T01:27:21;94307.38;;;18.62;50.70
49915;BME280;35806;47.958;13.158;2023-06-10T01:29:54;94307.59;;;18.59;50.75
49915;BME280;35806;47.958;13.158;2023-06-10T01:32:26;94308.01;;;18.82;50.80
49915;BME280;35806;47.958;13.158;2023-06-10T01:34:56;94309.73;;;18.32;50.78
49915;BME280;35806;47.958;13.158;2023-06-10T01:37:26;94311.97;;;18.34;50.54
49915;BME280;35806;47.958;13.158;2023-06-10T01:39:56;94307.64;;;18.89;47.43
49915;BME280;35806;47.958;13.158;2023-06-10T01:42:25;94312.42;;;18.15;49.51
49915;BME280;35806;47.958;13.158;2023-06-10T01:44:53;94312.64;;;18.07;50.67
49915;BME280;35806;47.958;13.158;2023-06-10T01:47:20;94312.36;;;18.07;51.19
49915;BME280;35806;47.958;13.158;2023-06-10T01:49:47;94316.49;;;17.81;49.74
49915;BME280;35806;47.958;13.158;2023-06-10T01:52:14;94321.31;;;17.51;51.68
49915;BME280;35806;47.958;13.158;2023-06-10T01:54:41;94320.27;;;17.55;51.35
49915;BME280;35806;47.958;13.158;2023-06-10T01:57:09;94320.33;;;17.32;51.93
49915;BME280;35806;47.958;13.158;2023-06-10T01:59:37;94322.58;;;17.36;52.30
49915;BME280;35806;47.958;13.158;2023-06-10T02:02:05;94320.83;;;17.11;51.07
49915;BME280;35806;47.958;13.158;2023-06-10T02:04:32;94323.72;;;17.38;50.91
49915;BME280;35806;47.958;13.158;2023-06-10T02:06:59;94320.98;;;16.94;52.21
49915;BME280;35806;47.958;13.158;2023-06-10T02:09:27;94322.40;;;17.20;51.14
49915;BME280;35806;47.958;13.158;2023-06-10T02:11:54;94319.61;;;16.61;51.74
49915;BME280;35806;47.958;13.158;2023-06-10T02:14:21;94319.17;;;16.43;51.83
49915;BME280;35806;47.958;13.158;2023-06-10T02:16:53;94319.17;;;16.31;53.99
49915;BME280;35806;47.958;13.158;2023-06-10T02:19:22;94319.17;;;16.12;53.58
49915;BME280;35806;47.958;13.158;2023-06-10T02:21:49;94323.03;;;16.43;51.99
49915;BME280;35806;47.958;13.158;2023-06-10T02:24:17;94322.63;;;16.17;52.42
49915;BME280;35806;47.958;13.158;2023-06-10T02:26:44;94321.02;;;16.39;51.41
49915;BME280;35806;47.958;13.158;2023-06-10T02:29:11;94317.84;;;16.14;52.43
49915;BME280;35806;47.958;13.158;2023-06-10T02:31:39;94315.55;;;15.92;53.85
49915;BME280;35806;47.958;13.158;2023-06-10T02:34:06;94316.45;;;15.94;54.04
49915;BME280;35806;47.958;13.158;2023-06-10T02:36:33;94319.08;;;16.07;54.74
49915;BME280;35806;47.958;13.158;2023-06-10T02:39:00;94321.00;;;16.12;54.91
49915;BME280;35806;47.958;13.158;2023-06-10T02:41:27;94321.56;;;15.93;55.14
49915;BME280;35806;47.958;13.158;2023-06-10T02:43:54;94321.29;;;15.90;55.31
49915;BME280;35806;47.958;13.158;2023-06-10T02:46:21;94324.40;;;16.04;55.02
49915;BME280;35806;47.958;13.158;2023-06-10T02:48:48;94325.99;;;16.08;54.82
49915;BME280;35806;47.958;13.158;2023-06-10T02:51:16;94328.20;;;15.98;54.91
49915;BME280;35806;47.958;13.158;2023-06-10T02:53:43;94330.58;;;16.32;54.75
49915;BME280;35806;47.958;13.158;2023-06-10T02:56:10;94331.15;;;16.23;54.56
49915;BME280;35806;47.958;13.158;2023-06-10T02:58:37;94327.03;;;15.96;54.68
49915;BME280;35806;47.958;13.158;2023-06-10T03:01:04;94328.74;;;16.18;55.29
49915;BME280;35806;47.958;13.158;2023-06-10T03:03:32;94328.02;;;16.22;54.61
49915;BME280;35806;47.958;13.158;2023-06-10T03:05:59;94328.39;;;16.01;55.49
49915;BME280;35806;47.958;13.158;2023-06-10T03:08:45;94326.30;;;15.94;55.70
49915;BME280;35806;47.958;13.158;2023-06-10T03:11:13;94326.56;;;16.45;55.08
49915;BME280;35806;47.958;13.158;2023-06-10T03:13:40;94326.42;;;16.60;54.73
49915;BME280;35806;47.958;13.158;2023-06-10T03:16:07;94329.70;;;16.75;55.04
49915;BME280;35806;47.958;13.158;2023-06-10T03:18:34;94331.69;;;16.40;55.27
49915;BME280;35806;47.958;13.158;2023-06-10T03:21:02;94330.56;;;16.82;55.09
49915;BME280;35806;47.958;13.158;2023-06-10T03:23:29;94324.94;;;16.71;55.13
49915;BME280;35806;47.958;13.158;2023-06-10T03:25:56;94324.09;;;16.16;56.54
49915;BME280;35806;47.958;13.158;2023-06-10T03:28:24;94325.93;;;15.94;56.55
49915;BME280;35806;47.958;13.158;2023-06-10T03:30:56;94326.90;;;16.36;56.34
49915;BME280;35806;47.958;13.158;2023-06-10T03:33:24;94328.95;;;16.89;54.93
49915;BME280;35806;47.958;13.158;2023-06-10T03:35:51;94327.53;;;16.73;54.84
49915;BME280;35806;47.958;13.158;2023-06-10T03:38:18;94325.74;;;16.78;54.98
49915;BME280;35806;47.958;13.158;2023-06-10T03:40:46;94324.53;;;16.25;55.44
49915;BME280;35806;47.958;13.158;2023-06-10T03:43:13;94325.33;;;16.68;55.05
49915;BME280;35806;47.958;13.158;2023-06-10T03:45:41;94328.92;;;16.42;55.85
49915;BME280;35806;47.958;13.158;2023-06-10T03:48:08;94339.28;;;17.00;55.06
49915;BME280;35806;47.958;13.158;2023-06-10T03:50:36;94341.84;;;17.27;53.75
49915;BME280;35806;47.958;13.158;2023-06-10T03:53:03;94341.61;;;17.17;53.30
49915;BME280;35806;47.958;13.158;2023-06-10T03:55:30;94346.80;;;17.18;53.30
49915;BME280;35806;47.958;13.158;2023-06-10T03:57:58;94347.48;;;17.11;53.57
49915;BME280;35806;47.958;13.158;2023-06-10T04:00:28;94346.44;;;17.55;53.30
49915;BME280;35806;47.958;13.158;2023-06-10T04:02:55;94347.78;;;17.44;52.97
49915;BME280;35806;47.958;13.158;2023-06-10T04:05:22;94347.88;;;17.48;52.78
49915;BME280;35806;47.958;13.158;2023-06-10T04:07:50;94354.04;;;16.97;52.69
49915;BME280;35806;47.958;13.158;2023-06-10T04:10:18;94355.07;;;16.93;53.19
49915;BME280;35806;47.958;13.158;2023-06-10T04:12:45;94358.94;;;17.08;53.30
49915;BME280;35806;47.958;13.158;2023-06-10T04:15:12;94359.05;;;16.71;53.52
49915;BME280;35806;47.958;13.158;2023-06-10T04:17:40;94359.67;;;16.75;52.89
49915;BME280;35806;47.958;13.158;2023-06-10T04:20:08;94362.08;;;17.03;52.43
49915;BME280;35806;47.958;13.158;2023-06-10T04:22:35;94367.34;;;16.62;53.44
49915;BME280;35806;47.958;13.158;2023-06-10T04:25:03;94368.74;;;16.66;53.91
49915;BME280;35806;47.958;13.158;2023-06-10T04:27:31;94366.02;;;16.07;55.69
49915;BME280;35806;47.958;13.158;2023-06-10T04:29:58;94369.21;;;16.28;55.93
49915;BME280;35806;47.958;13.158;2023-06-10T04:32:26;94374.46;;;16.23;56.76
49915;BME280;35806;47.958;13.158;2023-06-10T04:34:53;94375.28;;;16.19;56.29
49915;BME280;35806;47.958;13.158;2023-06-10T04:37:20;94380.72;;;16.98;55.24
49915;BME280;35806;47.958;13.158;2023-06-10T04:39:48;94379.58;;;16.96;55.43
49915;BME280;35806;47.958;13.158;2023-06-10T04:42:15;94380.16;;;16.89;55.36
49915;BME280;35806;47.958;13.158;2023-06-10T04:44:42;94383.43;;;17.06;55.33
49915;BME280;35806;47.958;13.158;2023-06-10T04:47:10;94384.04;;;16.79;54.97
49915;BME280;35806;47.958;13.158;2023-06-10T04:49:37;94380.15;;;16.51;56.42
49915;BME280;35806;47.958;13.158;2023-06-10T04:52:05;94380.18;;;16.38;57.09
49915;BME280;35806;47.958;13.158;2023-06-10T04:54:33;94385.56;;;16.23;57.44
49915;BME280;35806;47.958;13.158;2023-06-10T04:57:00;94387.50;;;17.02;56.17
49915;BME280;35806;47.958;13.158;2023-06-10T04:59:28;94387.52;;;17.53;55.11
49915;BME280;35806;47.958;13.158;2023-06-10T05:01:56;94387.08;;;17.65;54.96
49915;BME280;35806;47.958;13.158;2023-06-10T05:04:23;94384.07;;;17.87;54.35
49915;BME280;35806;47.958;13.158;2023-06-10T05:06:51;94383.08;;;17.71;54.23
49915;BME280;35806;47.958;13.158;2023-06-10T05:09:18;94382.49;;;17.51;53.90
49915;BME280;35806;47.958;13.158;2023-06-10T05:11:45;94379.62;;;17.63;54.49
49915;BME280;35806;47.958;13.158;2023-06-10T05:14:13;94379.81;;;17.54;53.93
49915;BME280;35806;47.958;13.158;2023-06-10T05:16:39;94377.18;;;17.63;53.53
49915;BME280;35806;47.958;13.158;2023-06-10T05:19:07;94380.80;;;17.54;53.12
49915;BME280;35806;47.958;13.158;2023-06-10T05:21:40;94382.01;;;18.01;52.48
49915;BME280;35806;47.958;13.158;2023-06-10T05:24:07;94384.03;;;17.80;52.49
49915;BME280;35806;47.958;13.158;2023-06-10T05:26:35;94384.18;;;17.70;53.53
49915;BME280;35806;47.958;13.158;2023-06-10T05:29:02;94381.93;;;17.49;53.67
49915;BME280;35806;47.958;13.158;2023-06-10T05:31:30;94382.20;;;17.42;53.59
49915;BME280;35806;47.958;13.158;2023-06-10T05:33:58;94378.62;;;17.91;52.45
49915;BME280;35806;47.958;13.158;2023-06-10T05:36:26;94382.82;;;18.44;51.74
49915;BME280;35806;47.958;13.158;2023-06-10T05:38:53;94384.01;;;18.13;51.85
49915;BME280;35806;47.958;13.158;2023-06-10T05:41:20;94386.93;;;17.72;53.25
49915;BME280;35806;47.958;13.158;2023-06-10T05:43:47;94385.82;;;18.19;52.47
49915;BME280;35806;47.958;13.158;2023-06-10T05:46:15;94388.08;;;17.69;52.68
49915;BME280;35806;47.958;13.158;2023-06-10T05:48:42;94388.59;;;17.16;53.26
49915;BME280;35806;47.958;13.158;2023-06-10T05:51:09;94383.19;;;17.80;52.79
49915;BME280;35806;47.958;13.158;2023-06-10T05:53:36;94385.19;;;16.72;54.34
49915;BME280;35806;47.958;13.158;2023-06-10T05:56:04;94383.35;;;17.32;53.53
49915;BME280;35806;47.958;13.158;2023-06-10T05:58:31;94386.07;;;16.87;55.01
49915;BME280;35806;47.958;13.158;2023-06-10T06:00:58;94383.90;;;17.46;53.47
49915;BME280;35806;47.958;13.158;2023-06-10T06:03:26;94384.92;;;16.62;55.92
49915;BME280;35806;47.958;13.158;2023-06-10T06:05:53;94383.91;;;17.56;53.43
49915;BME280;35806;47.958;13.158;2023-06-10T06:08:21;94381.39;;;17.11;54.89
49915;BME280;35806;47.958;13.158;2023-06-10T06:10:49;94381.57;;;18.33;52.64
49915;BME280;35806;47.958;13.158;2023-06-10T06:13:17;94385.47;;;18.71;51.73
49915;BME280;35806;47.958;13.158;2023-06-10T06:15:44;94383.93;;;18.09;52.15
49915;BME280;35806;47.958;13.158;2023-06-10T06:18:11;94385.53;;;18.78;50.86
49915;BME280;35806;47.958;13.158;2023-06-10T06:20:38;94387.64;;;19.79;48.81
49915;BME280;35806;47.958;13.158;2023-06-10T06:23:06;94387.08;;;19.63;48.62
49915;BME280;35806;47.958;13.158;2023-06-10T06:25:33;94386.21;;;19.89;47.52
49915;BME280;35806;47.958;13.158;2023-06-10T06:28:01;94381.01;;;19.88;48.53
49915;BME280;35806;47.958;13.158;2023-06-10T06:30:29;94378.72;;;19.86;47.75
49915;BME280;35806;47.958;13.158;2023-06-10T06:32:56;94376.27;;;19.79;46.42
49915;BME280;35806;47.958;13.158;2023-06-10T06:35:24;94380.83;;;20.03;46.55
49915;BME280;35806;47.958;13.158;2023-06-10T06:37:52;94379.65;;;20.52;45.82
49915;BME280;35806;47.958;13.158;2023-06-10T06:40:19;94378.68;;;20.36;46.49
49915;BME280;35806;47.958;13.158;2023-06-10T06:42:46;94380.34;;;20.39;45.27
49915;BME280;35806;47.958;13.158;2023-06-10T06:45:14;94380.21;;;20.49;45.49
49915;BME280;35806;47.958;13.158;2023-06-10T06:47:41;94383.56;;;19.40;46.37
49915;BME280;35806;47.958;13.158;2023-06-10T06:50:10;94385.49;;;19.51;47.23
49915;BME280;35806;47.958;13.158;2023-06-10T06:52:37;94382.42;;;20.37;46.00
49915;BME280;35806;47.958;13.158;2023-06-10T06:55:05;94383.82;;;20.76;45.32
49915;BME280;35806;47.958;13.158;2023-06-10T06:57:32;94384.26;;;20.23;45.49
49915;BME280;35806;47.958;13.158;2023-06-10T06:59:59;94385.95;;;20.48;46.06
49915;BME280;35806;47.958;13.158;2023-06-10T07:02:26;94390.82;;;21.15;44.29
49915;BME280;35806;47.958;13.158;2023-06-10T07:04:54;94392.91;;;21.11;44.77
49915;BME280;35806;47.958;13.158;2023-06-10T07:07:21;94398.28;;;21.39;44.12
49915;BME280;35806;47.958;13.158;2023-06-10T07:09:49;94398.30;;;20.98;43.81
49915;BME280;35806;47.958;13.158;2023-06-10T07:12:16;94401.39;;;19.92;45.72
49915;BME280;35806;47.958;13.158;2023-06-10T07:14:44;94400.09;;;20.42;45.88
49915;BME280;35806;47.958;13.158;2023-06-10T07:17:11;94404.10;;;20.61;45.00
49915;BME280;35806;47.958;13.158;2023-06-10T07:19:39;94404.43;;;19.62;48.01
49915;BME280;35806;47.958;13.158;2023-06-10T07:22:06;94409.65;;;19.78;47.85
49915;BME280;35806;47.958;13.158;2023-06-10T07:24:33;94407.10;;;21.07;45.12
49915;BME280;35806;47.958;13.158;2023-06-10T07:27:01;94407.76;;;20.63;46.40
49915;BME280;35806;47.958;13.158;2023-06-10T07:29:28;94403.70;;;20.27;46.47
49915;BME280;35806;47.958;13.158;2023-06-10T07:31:56;94404.06;;;20.24;46.50
49915;BME280;35806;47.958;13.158;2023-06-10T07:34:23;94406.51;;;20.60;45.29
49915;BME280;35806;47.958;13.158;2023-06-10T07:36:55;94410.02;;;21.37;44.70
49915;BME280;35806;47.958;13.158;2023-06-10T07:39:27;94408.63;;;20.43;45.98
49915;BME280;35806;47.958;13.158;2023-06-10T07:41:55;94408.77;;;21.17;44.91
49915;BME280;35806;47.958;13.158;2023-06-10T07:44:23;94411.43;;;21.72;43.52
49915;BME280;35806;47.958;13.158;2023-06-10T07:46:50;94412.55;;;21.76;43.16
49915;BME280;35806;47.958;13.158;2023-06-10T07:49:18;94414.70;;;21.95;42.99
49915;BME280;35806;47.958;13.158;2023-06-10T07:51:45;94415.44;;;21.02;44.01
49915;BME280;35806;47.958;13.158;2023-06-10T07:54:12;94416.21;;;21.71;43.40
49915;BME280;35806;47.958;13.158;2023-06-10T07:56:40;94414.11;;;21.00;44.97
49915;BME280;35806;47.958;13.158;2023-06-10T07:59:07;94411.03;;;21.10;43.47
49915;BME280;35806;47.958;13.158;2023-06-10T08:01:35;94412.13;;;19.79;48.83
49915;BME280;35806;47.958;13.158;2023-06-10T08:04:03;94409.08;;;20.23;45.44
49915;BME280;35806;47.958;13.158;2023-06-10T08:06:30;94409.37;;;21.22;46.12
49915;BME280;35806;47.958;13.158;2023-06-10T08:08:58;94409.55;;;21.11;45.85
49915;BME280;35806;47.958;13.158;2023-06-10T08:11:26;94412.41;;;20.56;47.64
49915;BME280;35806;47.958;13.158;2023-06-10T08:13:53;94413.50;;;21.22;45.35
49915;BME280;35806;47.958;13.158;2023-06-10T08:16:21;94415.03;;;21.70;44.73
49915;BME280;35806;47.958;13.158;2023-06-10T08:18:48;94416.90;;;22.65;42.11
49915;BME280;35806;47.958;13.158;2023-06-10T08:21:16;94417.82;;;21.82;42.14
49915;BME280;35806;47.958;13.158;2023-06-10T08:23:43;94416.34;;;22.32;41.80
49915;BME280;35806;47.958;13.158;2023-06-10T08:26:11;94419.22;;;21.31;42.91
49915;BME280;35806;47.958;13.158;2023-06-10T08:28:38;94417.09;;;21.58;42.41
49915;BME280;35806;47.958;13.158;2023-06-10T08:31:06;94417.03;;;22.01;42.38
49915;BME280;35806;47.958;13.158;2023-06-10T08:33:33;94415.59;;;22.78;41.07
49915;BME280;35806;47.958;13.158;2023-06-10T08:36:01;94416.13;;;22.87;41.47
49915;BME280;35806;47.958;13.158;2023-06-10T08:38:28;94419.90;;;23.36;40.04
49915;BME280;35806;47.958;13.158;2023-06-10T08:40:59;94415.39;;;23.90;38.28
49915;BME280;35806;47.958;13.158;2023-06-10T08:43:32;94415.75;;;24.66;37.20
49915;BME280;35806;47.958;13.158;2023-06-10T08:46:01;94416.26;;;24.27;37.72
49915;BME280;35806;47.958;13.158;2023-06-10T08:48:30;94417.39;;;24.18;38.98
49915;BME280;35806;47.958;13.158;2023-06-10T08:50:57;94412.87;;;24.55;37.75
49915;BME280;35806;47.958;13.158;2023-06-10T08:53:26;94412.58;;;24.16;36.93
49915;BME280;35806;47.958;13.158;2023-06-10T08:55:55;94412.65;;;24.97;36.99
49915;BME280;35806;47.958;13.158;2023-06-10T08:58:26;94412.41;;;23.23;38.65
49915;BME280;35806;47.958;13.158;2023-06-10T09:00:54;94412.20;;;24.37;37.29
49915;BME280;35806;47.958;13.158;2023-06-10T09:03:21;94414.73;;;24.51;37.64
49915;BME280;35806;47.958;13.158;2023-06-10T09:05:50;94414.82;;;24.59;37.81
49915;BME280;35806;47.958;13.158;2023-06-10T09:08:18;94412.38;;;25.01;36.18
49915;BME280;35806;47.958;13.158;2023-06-10T09:10:45;94408.71;;;25.35;36.56
49915;BME280;35806;47.958;13.158;2023-06-10T09:13:13;94419.24;;;24.39;36.68
49915;BME280;35806;47.958;13.158;2023-06-10T09:15:40;94421.89;;;24.47;36.54
49915;BME280;35806;47.958;13.158;2023-06-10T09:18:07;94416.64;;;24.75;37.02
49915;BME280;35806;47.958;13.158;2023-06-10T09:20:34;94419.04;;;24.64;38.26
49915;BME280;35806;47.958;13.158;2023-06-10T09:23:02;94420.87;;;25.05;34.23
49915;BME280;35806;47.958;13.158;2023-06-10T09:25:38;94417.49;;;24.35;34.75
49915;BME280;35806;47.958;13.158;2023-06-10T09:28:13;94417.90;;;24.65;35.58
49915;BME280;35806;47.958;13.158;2023-06-10T09:30:41;94416.79;;;25.56;35.67
49915;BME280;35806;47.958;13.158;2023-06-10T09:33:11;94421.54;;;25.32;34.90
49915;BME280;35806;47.958;13.158;2023-06-10T09:35:46;94422.90;;;25.12;32.03
49915;BME280;35806;47.958;13.158;2023-06-10T09:38:15;94422.71;;;24.31;35.01
49915;BME280;35806;47.958;13.158;2023-06-10T09:40:51;94419.97;;;24.38;35.91
49915;BME280;35806;47.958;13.158;2023-06-10T09:43:19;94416.41;;;24.89;36.21
49915;BME280;35806;47.958;13.158;2023-06-10T09:45:48;94418.15;;;24.72;35.58
49915;BME280;35806;47.958;13.158;2023-06-10T09:48:16;94417.12;;;24.37;36.17
49915;BME280;35806;47.958;13.158;2023-06-10T09:50:45;94421.27;;;25.52;34.83
49915;BME280;35806;47.958;13.158;2023-06-10T09:53:13;94420.09;;;23.97;35.89
49915;BME280;35806;47.958;13.158;2023-06-10T09:55:45;94418.31;;;25.69;35.23
49915;BME280;35806;47.958;13.158;2023-06-10T09:58:14;94420.06;;;25.19;34.25
49915;BME280;35806;47.958;13.158;2023-06-10T10:00:41;94419.64;;;26.02;37.21
49915;BME280;35806;47.958;13.158;2023-06-10T10:03:09;94422.66;;;24.46;34.74
49915;BME280;35806;47.958;13.158;2023-06-10T10:05:36;94421.36;;;24.29;34.98
49915;BME280;35806;47.958;13.158;2023-06-10T10:08:04;94421.60;;;25.60;34.72
49915;BME280;35806;47.958;13.158;2023-06-10T10:10:31;94418.94;;;24.45;35.12
49915;BME280;35806;47.958;13.158;2023-06-10T10:12:58;94418.80;;;24.64;35.48
49915;BME280;35806;47.958;13.158;2023-06-10T10:15:32;94421.19;;;23.01;36.18
49915;BME280;35806;47.958;13.158;2023-06-10T10:18:06;94420.29;;;24.18;34.36
49915;BME280;35806;47.958;13.158;2023-06-10T10:20:36;94415.22;;;25.24;34.16
49915;BME280;35806;47.958;13.158;2023-06-10T10:23:05;94420.49;;;21.89;37.86
49915;BME280;35806;47.958;13.158;2023-06-10T10:25:37;94416.62;;;23.66;35.51
49915;BME280;35806;47.958;13.158;2023-06-10T10:28:08;94413.88;;;24.38;35.96
49915;BME280;35806;47.958;13.158;2023-06-10T10:30:40;94414.72;;;23.80;36.96
49915;BME280;35806;47.958;13.158;2023-06-10T10:33:12;94412.16;;;23.59;37.35
49915;BME280;35806;47.958;13.158;2023-06-10T10:35:40;94415.53;;;24.90;36.80
49915;BME280;35806;47.958;13.158;2023-06-10T10:38:08;94421.62;;;25.71;34.61
49915;BME280;35806;47.958;13.158;2023-06-10T10:40:36;94414.62;;;25.99;34.39
49915;BME280;35806;47.958;13.158;2023-06-10T10:43:04;94409.37;;;25.17;34.23
49915;BME280;35806;47.958;13.158;2023-06-10T10:45:33;94410.40;;;25.76;35.26
49915;BME280;35806;47.958;13.158;2023-06-10T10:48:07;94413.85;;;25.75;33.71
49915;BME280;35806;47.958;13.158;2023-06-10T10:50:35;94407.73;;;23.91;35.47
49915;BME280;35806;47.958;13.158;2023-06-10T10:53:04;94407.80;;;24.56;33.37
49915;BME280;35806;47.958;13.158;2023-06-10T10:55:33;94405.00;;;25.61;32.09
49915;BME280;35806;47.958;13.158;2023-06-10T10:58:03;94406.15;;;25.56;33.19
49915;BME280;35806;47.958;13.158;2023-06-10T11:00:32;94407.74;;;26.45;32.11
49915;BME280;35806;47.958;13.158;2023-06-10T11:03:04;94412.86;;;26.10;33.35
49915;BME280;35806;47.958;13.158;2023-06-10T11:05:36;94405.45;;;26.35;32.10
49915;BME280;35806;47.958;13.158;2023-06-10T11:08:04;94405.98;;;26.12;31.26
49915;BME280;35806;47.958;13.158;2023-06-10T11:10:32;94402.47;;;26.69;31.28
49915;BME280;35806;47.958;13.158;2023-06-10T11:13:00;94406.56;;;25.69;29.86
49915;BME280;35806;47.958;13.158;2023-06-10T11:15:32;94406.54;;;24.22;35.22
49915;BME280;35806;47.958;13.158;2023-06-10T11:18:09;94406.06;;;24.23;37.07
49915;BME280;35806;47.958;13.158;2023-06-10T11:20:45;94413.81;;;25.85;32.68
49915;BME280;35806;47.958;13.158;2023-06-10T11:23:50;94408.10;;;25.46;30.91
49915;BME280;35806;47.958;13.158;2023-06-10T11:26:29;94405.76;;;25.71;33.12
49915;BME280;35806;47.958;13.158;2023-06-10T11:29:05;94399.51;;;24.80;32.53
49915;BME280;35806;47.958;13.158;2023-06-10T11:31:35;94403.27;;;26.12;34.55
49915;BME280;35806;47.958;13.158;2023-06-10T11:34:06;94401.91;;;24.91;35.93
49915;BME280;35806;47.958;13.158;2023-06-10T11:36:36;94399.89;;;24.53;36.16
49915;BME280;35806;47.958;13.158;2023-06-10T11:39:05;94401.11;;;24.74;32.37
49915;BME280;35806;47.958;13.158;2023-06-10T11:41:34;94400.86;;;25.18;31.89
49915;BME280;35806;47.958;13.158;2023-06-10T11:44:03;94397.88;;;25.78;32.56
49915;BME280;35806;47.958;13.158;2023-06-10T11:46:30;94393.99;;;25.07;33.31
49915;BME280;35806;47.958;13.158;2023-06-10T11:48:59;94393.82;;;26.26;31.20
49915;BME280;35806;47.958;13.158;2023-06-10T11:51:28;94392.43;;;26.31;30.43
49915;BME280;35806;47.958;13.158;2023-06-10T11:53:56;94389.24;;;26.04;30.95
49915;BME280;35806;47.958;13.158;2023-06-10T11:56:24;94388.60;;;26.48;31.43
49915;BME280;35806;47.958;13.158;2023-06-10T11:58:55;94386.24;;;24.81;33.62
49915;BME280;35806;47.958;13.158;2023-06-10T12:01:24;94383.00;;;25.63;32.55
49915;BME280;35806;47.958;13.158;2023-06-10T12:04:00;94386.16;;;25.47;31.04
49915;BME280;35806;47.958;13.158;2023-06-10T12:06:38;94385.64;;;24.39;33.09
49915;BME280;35806;47.958;13.158;2023-06-10T12:09:06;94388.86;;;26.00;31.79
49915;BME280;35806;47.958;13.158;2023-06-10T12:11:33;94383.04;;;24.24;34.63
49915;BME280;35806;47.958;13.158;2023-06-10T12:14:05;94393.10;;;25.96;32.67
49915;BME280;35806;47.958;13.158;2023-06-10T12:16:33;94393.78;;;27.30;30.13
49915;BME280;35806;47.958;13.158;2023-06-10T12:19:02;94392.02;;;27.43;28.52
49915;BME280;35806;47.958;13.158;2023-06-10T12:21:29;94390.00;;;27.35;29.04
49915;BME280;35806;47.958;13.158;2023-06-10T12:24:02;94393.61;;;27.63;28.70
49915;BME280;35806;47.958;13.158;2023-06-10T12:26:38;94390.71;;;27.91;27.96
49915;BME280;35806;47.958;13.158;2023-06-10T12:29:23;94395.07;;;27.85;28.00
49915;BME280;35806;47.958;13.158;2023-06-10T12:31:56;94398.13;;;27.53;29.19
49915;BME280;35806;47.958;13.158;2023-06-10T12:34:40;94401.49;;;27.19;29.52
49915;BME280;35806;47.958;13.158;2023-06-10T12:37:11;94399.06;;;27.23;29.81
49915;BME280;35806;47.958;13.158;2023-06-10T12:39:39;94402.09;;;26.86;31.00
49915;BME280;35806;47.958;13.158;2023-06-10T12:42:09;94400.93;;;26.85;31.50
49915;BME280;35806;47.958;13.158;2023-06-10T12:44:39;94396.25;;;26.31;32.56
49915;BME280;35806;47.958;13.158;2023-06-10T12:47:08;94398.86;;;26.02;34.15
49915;BME280;35806;47.958;13.158;2023-06-10T12:49:36;94396.27;;;26.16;34.48
49915;BME280;35806;47.958;13.158;2023-06-10T12:52:04;94391.34;;;26.02;34.21
49915;BME280;35806;47.958;13.158;2023-06-10T12:54:31;94390.17;;;25.82;35.49
49915;BME280;35806;47.958;13.158;2023-06-10T12:57:05;94390.51;;;25.68;35.21
49915;BME280;35806;47.958;13.158;2023-06-10T12:59:32;94390.77;;;25.72;35.38
49915;BME280;35806;47.958;13.158;2023-06-10T13:01:59;94388.57;;;25.35;35.91
49915;BME280;35806;47.958;13.158;2023-06-10T13:04:27;94388.28;;;25.52;36.36
49915;BME280;35806;47.958;13.158;2023-06-10T13:06:54;94389.31;;;25.49;35.43
49915;BME280;35806;47.958;13.158;2023-06-10T13:09:21;94387.78;;;25.90;35.34
49915;BME280;35806;47.958;13.158;2023-06-10T13:11:48;94388.24;;;26.17;34.26
49915;BME280;35806;47.958;13.158;2023-06-10T13:14:16;94390.50;;;26.23;32.75